Time;durP1;ratioP1;P1;durP2;ratioP2;P2;SDS_P1;SDS_P2;PMS_P1;PMS_P2;Temp;Humidity;BMP_temperature;BMP_pressure;BME280_temperature;BME280_humidity;BME280_pressure;Samples;Min_cycle;Max_cycle;Signal;HPM_P1;HPM_P2
2022/03/16 00:01:55;;;;;;;34.65;16.02;;;;;;;5.44;100.00;102101.03;5086221;28;20083;-72
2022/03/16 00:04:21;;;;;;;28.38;15.32;;;;;;;5.40;100.00;102103.59;5088957;28;20517;-71
2022/03/16 00:06:48;;;;;;;32.72;15.70;;;;;;;5.36;100.00;102102.66;5088961;28;20056;-71
2022/03/16 00:09:14;;;;;;;35.90;16.17;;;;;;;5.32;100.00;102104.47;5088237;28;20051;-72
2022/03/16 00:11:41;;;;;;;33.42;16.60;;;;;;;5.30;100.00;102103.97;5089924;28;20044;-72
2022/03/16 00:14:08;;;;;;;33.10;14.32;;;;;;;5.17;100.00;102106.94;5089047;28;20052;-71
2022/03/16 00:16:34;;;;;;;32.15;15.30;;;;;;;5.12;100.00;102113.41;5089472;28;20580;-71
2022/03/16 00:19:01;;;;;;;39.67;15.15;;;;;;;5.10;100.00;102109.38;5092741;28;20051;-73
2022/03/16 00:21:28;;;;;;;37.10;17.23;;;;;;;5.10;100.00;102107.41;5088565;28;20060;-71
2022/03/16 00:23:54;;;;;;;37.83;17.58;;;;;;;5.10;100.00;102114.88;5088356;28;20736;-71
2022/03/16 00:26:21;;;;;;;31.88;16.77;;;;;;;5.08;100.00;102120.69;5088566;28;20457;-74
2022/03/16 00:28:47;;;;;;;27.98;14.02;;;;;;;5.03;100.00;102123.56;5092803;28;20048;-72
2022/03/16 00:31:14;;;;;;;30.63;14.75;;;;;;;4.93;100.00;102118.44;5089272;28;20821;-71
2022/03/16 00:33:41;;;;;;;30.58;14.77;;;;;;;4.88;100.00;102129.59;5090764;28;20044;-72
2022/03/16 00:36:08;;;;;;;33.72;16.30;;;;;;;4.85;100.00;102124.75;5092253;28;20884;-70
2022/03/16 00:38:34;;;;;;;36.30;16.95;;;;;;;4.85;100.00;102122.00;5088214;28;20455;-71
2022/03/16 00:41:02;;;;;;;33.15;16.23;;;;;;;4.76;100.00;102128.63;5087782;28;20043;-71
2022/03/16 00:43:28;;;;;;;33.45;16.73;;;;;;;4.78;100.00;102124.44;5091374;28;20135;-73
2022/03/16 00:45:55;;;;;;;34.10;18.45;;;;;;;4.87;100.00;102136.19;5093221;28;20401;-71
2022/03/16 00:48:21;;;;;;;38.63;19.00;;;;;;;4.91;100.00;102141.84;5088623;28;20043;-71
2022/03/16 00:50:48;;;;;;;34.60;17.75;;;;;;;4.95;100.00;102137.31;5089064;28;20423;-70
2022/03/16 00:53:14;;;;;;;37.95;18.38;;;;;;;4.97;100.00;102137.81;5092381;28;20043;-71
2022/03/16 00:55:41;;;;;;;30.48;17.38;;;;;;;4.95;100.00;102131.81;5091892;28;20071;-72
2022/03/16 00:58:07;;;;;;;41.97;20.48;;;;;;;4.94;100.00;102136.53;5100391;28;20402;-70
2022/03/16 01:00:34;;;;;;;38.90;20.60;;;;;;;4.88;100.00;102139.75;5090513;28;20064;-74
2022/03/16 01:03:00;;;;;;;47.80;22.63;;;;;;;4.82;100.00;102144.59;5087700;28;20550;-70
2022/03/16 01:05:27;;;;;;;35.03;18.95;;;;;;;4.77;100.00;102138.47;5086936;28;20056;-70
2022/03/16 01:07:53;;;;;;;40.38;21.23;;;;;;;4.70;100.00;102144.44;5089244;28;20086;-70
2022/03/16 01:10:20;;;;;;;44.50;23.35;;;;;;;4.65;100.00;102141.03;5087341;28;20043;-71
2022/03/16 01:12:47;;;;;;;40.60;23.10;;;;;;;4.63;100.00;102146.06;5099555;28;20131;-70
2022/03/16 01:15:13;;;;;;;46.40;22.70;;;;;;;4.60;100.00;102147.53;5086609;28;20052;-71
2022/03/16 01:17:40;;;;;;;42.50;22.60;;;;;;;4.62;100.00;102148.00;5093561;28;20147;-70
2022/03/16 01:20:07;;;;;;;42.00;22.88;;;;;;;4.61;100.00;102135.41;5102448;28;20039;-70
2022/03/16 01:22:33;;;;;;;39.35;19.90;;;;;;;4.54;100.00;102137.84;5088206;28;20138;-73
2022/03/16 01:25:00;;;;;;;38.38;21.45;;;;;;;4.44;100.00;102145.56;5097388;28;20520;-70
2022/03/16 01:27:26;;;;;;;44.45;22.45;;;;;;;4.46;100.00;102141.38;5085179;28;20386;-70
2022/03/16 01:29:53;;;;;;;38.25;22.00;;;;;;;4.47;100.00;102139.44;5094292;28;20135;-70
2022/03/16 01:32:19;;;;;;;42.45;21.63;;;;;;;4.52;100.00;102136.56;5084678;28;20139;-70
2022/03/16 01:34:46;;;;;;;41.42;23.85;;;;;;;4.50;100.00;102139.63;5086754;28;20052;-69
2022/03/16 01:37:12;;;;;;;39.25;22.95;;;;;;;4.45;100.00;102141.69;5090966;28;20044;-70
2022/03/16 01:39:39;;;;;;;41.90;22.67;;;;;;;4.45;100.00;102141.69;5086582;28;20048;-70
2022/03/16 01:42:05;;;;;;;41.50;22.40;;;;;;;4.43;100.00;102133.81;5092720;28;20533;-71
2022/03/16 01:44:46;;;;;;;36.63;21.60;;;;;;;4.39;100.00;102141.03;5092345;28;20051;-70
2022/03/16 01:47:13;;;;;;;36.58;20.58;;;;;;;4.28;100.00;102137.00;5090276;28;20058;-73
2022/03/16 01:49:40;;;;;;;37.70;20.52;;;;;;;4.16;100.00;102139.59;5086716;28;20056;-70
2022/03/16 01:52:08;;;;;;;41.03;21.98;;;;;;;4.16;100.00;102139.59;5087511;28;20135;-70
2022/03/16 01:54:36;;;;;;;37.03;21.10;;;;;;;4.23;100.00;102131.69;5086575;28;20454;-72
2022/03/16 01:57:03;;;;;;;41.58;22.05;;;;;;;4.23;100.00;102131.69;5089072;28;20054;-70
2022/03/16 01:59:30;;;;;;;33.63;18.70;;;;;;;4.21;100.00;102131.19;5087805;28;20590;-71
2022/03/16 02:01:58;;;;;;;35.35;20.02;;;;;;;4.23;100.00;102133.63;5088887;28;20661;-71
2022/03/16 02:04:25;;;;;;;37.42;22.02;;;;;;;4.21;100.00;102139.41;5083857;28;20057;-71
2022/03/16 02:06:52;;;;;;;34.45;19.15;;;;;;;4.16;100.00;102134.09;5092775;28;20055;-71
2022/03/16 02:09:19;;;;;;;35.03;18.48;;;;;;;4.14;100.00;102135.53;5092599;28;20622;-70
2022/03/16 02:11:45;;;;;;;34.85;20.00;;;;;;;4.15;100.00;102132.47;5090555;28;20585;-70
2022/03/16 02:14:12;;;;;;;32.95;17.00;;;;;;;4.16;100.00;102128.63;5096167;28;20039;-71
2022/03/16 02:16:39;;;;;;;30.88;18.33;;;;;;;4.14;100.00;102130.06;5090964;28;20424;-70
2022/03/16 02:19:05;;;;;;;35.45;18.33;;;;;;;4.14;100.00;102136.34;5091019;28;20050;-70
2022/03/16 02:21:36;;;;;;;34.72;19.35;;;;;;;4.11;100.00;102144.38;5089829;28;20045;-72
2022/03/16 02:24:04;;;;;;;31.98;18.83;;;;;;;4.07;100.00;102144.22;5090168;28;20138;-71
2022/03/16 02:26:31;;;;;;;36.92;17.60;;;;;;;3.99;100.00;102139.56;5090731;28;20131;-70
2022/03/16 02:28:58;;;;;;;39.35;21.60;;;;;;;3.97;100.00;102140.97;5091242;28;20058;-70
2022/03/16 02:31:25;;;;;;;31.95;19.67;;;;;;;3.98;100.00;102146.13;5090516;28;20052;-71
2022/03/16 02:33:52;;;;;;;40.40;18.25;;;;;;;3.79;100.00;102147.53;5089850;28;20044;-71
2022/03/16 02:36:19;;;;;;;24.67;11.98;;;;;;;3.63;100.00;102152.63;5088977;28;20415;-71
2022/03/16 02:38:46;;;;;;;37.03;19.77;;;;;;;3.69;100.00;102148.66;5094382;28;20039;-70
2022/03/16 02:41:13;;;;;;;40.70;20.25;;;;;;;3.78;100.00;102146.72;5092022;28;20139;-70
2022/03/16 02:43:39;;;;;;;35.63;19.38;;;;;;;3.83;100.00;102148.50;5090811;28;20052;-70
2022/03/16 02:46:06;;;;;;;35.83;19.88;;;;;;;3.84;100.00;102150.94;5090440;28;20048;-70
2022/03/16 02:48:32;;;;;;;38.88;18.33;;;;;;;3.87;100.00;102136.59;5089001;28;20051;-70
2022/03/16 02:50:59;;;;;;;36.55;18.13;;;;;;;3.85;100.00;102138.84;5088529;28;20040;-72
2022/03/16 02:53:25;;;;;;;35.40;18.02;;;;;;;3.83;100.00;102135.63;5089149;28;20046;-70
2022/03/16 02:55:52;;;;;;;36.25;19.55;;;;;;;3.83;100.00;102140.28;5090201;28;20131;-70
2022/03/16 02:58:19;;;;;;;37.40;20.05;;;;;;;3.80;100.00;102140.94;5093074;28;20044;-70
2022/03/16 03:00:46;;;;;;;43.38;21.17;;;;;;;3.79;100.00;102134.66;5089724;28;20066;-71
2022/03/16 03:03:12;;;;;;;47.95;23.17;;;;;;;3.77;100.00;102133.34;5089278;28;20497;-70
2022/03/16 03:05:39;;;;;;;37.63;19.75;;;;;;;3.79;100.00;102136.59;5081781;28;20044;-72
2022/03/16 03:08:05;;;;;;;38.75;20.08;;;;;;;3.75;100.00;102133.66;5098628;28;20058;-71
2022/03/16 03:10:32;;;;;;;39.00;18.98;;;;;;;3.73;100.00;102133.19;5089376;28;20059;-70
2022/03/16 03:12:59;;;;;;;37.35;22.00;;;;;;;3.69;100.00;102126.75;5089590;28;20044;-70
2022/03/16 03:15:25;;;;;;;38.88;19.75;;;;;;;3.64;100.00;102123.34;5089375;28;20131;-70
2022/03/16 03:17:52;;;;;;;32.00;17.55;;;;;;;3.60;100.00;102112.22;5090178;28;20054;-72
2022/03/16 03:20:19;;;;;;;35.45;19.33;;;;;;;3.52;100.00;102121.22;5089141;28;20051;-72
2022/03/16 03:22:46;;;;;;;33.50;18.33;;;;;;;3.49;100.00;102121.84;5087123;28;20159;-69
2022/03/16 03:25:14;;;;;;;32.50;19.42;;;;;;;3.41;100.00;102119.06;5075073;28;20505;-70
2022/03/16 03:27:41;;;;;;;34.00;19.52;;;;;;;3.39;100.00;102119.38;5089060;28;20458;-72
2022/03/16 03:30:09;;;;;;;32.53;18.23;;;;;;;3.38;100.00;102119.69;5089133;28;20060;-70
2022/03/16 03:32:37;;;;;;;39.80;21.92;;;;;;;3.35;100.00;102121.13;5088882;28;20048;-70
2022/03/16 03:35:03;;;;;;;34.05;20.60;;;;;;;3.32;100.00;102115.47;5087505;28;20218;-70
2022/03/16 03:37:30;;;;;;;37.03;19.58;;;;;;;3.29;100.00;102113.34;5089754;28;20052;-70
2022/03/16 03:39:57;;;;;;;34.10;20.35;;;;;;;3.28;100.00;102112.56;5089348;28;20106;-72
2022/03/16 03:42:24;;;;;;;36.88;21.42;;;;;;;3.27;100.00;102110.94;5089491;28;20064;-70
2022/03/16 03:44:50;;;;;;;34.63;20.92;;;;;;;3.26;100.00;102117.53;5089065;28;20047;-70
2022/03/16 03:47:17;;;;;;;36.85;19.45;;;;;;;3.26;100.00;102114.81;5088908;28;20519;-72
2022/03/16 03:49:43;;;;;;;34.13;21.13;;;;;;;3.25;100.00;102113.19;5079281;28;20532;-70
2022/03/16 03:52:10;;;;;;;33.20;19.77;;;;;;;3.23;100.00;102120.91;5088823;28;20062;-70
2022/03/16 03:54:37;;;;;;;31.83;20.67;;;;;;;3.18;100.00;102112.84;5089591;28;20066;-70
2022/03/16 03:57:04;;;;;;;38.17;22.65;;;;;;;3.13;100.00;102093.81;5090656;28;20044;-70
2022/03/16 03:59:30;;;;;;;34.20;21.85;;;;;;;3.13;100.00;102106.72;5087368;28;20048;-70
2022/03/16 04:01:57;;;;;;;39.50;23.77;;;;;;;3.10;100.00;102110.06;5088170;28;20079;-70
2022/03/16 04:04:24;;;;;;;40.63;22.25;;;;;;;3.09;100.00;102108.44;5089213;28;20134;-71
2022/03/16 04:06:51;;;;;;;39.83;22.83;;;;;;;2.97;100.00;102110.94;5089816;28;20090;-70
2022/03/16 04:09:17;;;;;;;37.22;22.90;;;;;;;3.01;100.00;102106.47;5100091;28;20109;-70
2022/03/16 04:11:44;;;;;;;36.28;21.00;;;;;;;3.08;100.00;102107.63;5088724;28;20109;-72
2022/03/16 04:14:11;;;;;;;34.08;21.05;;;;;;;3.11;100.00;102109.75;5087201;28;20070;-70
2022/03/16 04:16:37;;;;;;;39.60;21.73;;;;;;;3.13;100.00;102112.19;5088696;28;20505;-71
2022/03/16 04:19:04;;;;;;;33.72;20.83;;;;;;;3.19;100.00;102114.44;5088577;28;20060;-72
2022/03/16 04:21:31;;;;;;;32.72;19.25;;;;;;;3.18;100.00;102110.13;5086891;28;20058;-70
2022/03/16 04:23:57;;;;;;;34.00;20.95;;;;;;;3.17;100.00;102113.94;5088384;28;20040;-73
2022/03/16 04:26:24;;;;;;;35.10;20.00;;;;;;;3.16;100.00;102119.72;5088049;28;20117;-70
2022/03/16 04:28:50;;;;;;;33.35;19.27;;;;;;;3.15;100.00;102112.66;5086926;28;20078;-70
2022/03/16 04:31:17;;;;;;;31.83;19.50;;;;;;;3.13;100.00;102110.22;5087711;28;20126;-71
2022/03/16 04:33:43;;;;;;;36.17;20.55;;;;;;;3.12;100.00;102122.28;5088254;28;20084;-70
2022/03/16 04:36:10;;;;;;;37.78;21.15;;;;;;;3.08;100.00;102102.19;5088461;28;20419;-70
2022/03/16 04:38:36;;;;;;;38.47;22.42;;;;;;;3.08;100.00;102107.63;5087781;28;20059;-70
2022/03/16 04:41:03;;;;;;;34.10;20.98;;;;;;;3.09;100.00;102103.78;5087568;28;20052;-71
2022/03/16 04:43:30;;;;;;;34.67;21.55;;;;;;;3.14;100.00;102103.63;5087876;28;20134;-70
2022/03/16 04:45:57;;;;;;;36.75;21.42;;;;;;;3.16;100.00;102115.06;5087592;28;20052;-70
2022/03/16 04:48:23;;;;;;;40.20;21.73;;;;;;;3.15;100.00;102118.94;5088223;28;20097;-71
2022/03/16 04:50:50;;;;;;;34.83;20.52;;;;;;;3.10;100.00;102115.53;5086261;28;20058;-70
2022/03/16 04:53:16;;;;;;;35.00;21.48;;;;;;;3.07;100.00;102114.22;5082350;28;20491;-70
2022/03/16 04:55:43;;;;;;;40.08;22.42;;;;;;;3.11;100.00;102108.94;5085287;28;20139;-71
2022/03/16 04:58:10;;;;;;;37.35;22.38;;;;;;;3.14;100.00;102117.31;5090822;28;20656;-71
2022/03/16 05:00:37;;;;;;;39.17;22.00;;;;;;;3.19;100.00;102119.09;5086365;28;20058;-70
2022/03/16 05:03:05;;;;;;;37.70;21.63;;;;;;;3.21;100.00;102117.69;5087512;28;20048;-70
2022/03/16 05:05:32;;;;;;;41.08;21.63;;;;;;;3.21;100.00;102119.59;5087702;28;20114;-70
2022/03/16 05:07:58;;;;;;;35.28;20.92;;;;;;;3.23;100.00;102118.16;5095230;28;20058;-72
2022/03/16 05:10:25;;;;;;;33.70;20.48;;;;;;;3.25;100.00;102124.13;5089016;28;20506;-70
2022/03/16 05:12:51;;;;;;;35.10;20.67;;;;;;;3.28;100.00;102129.00;5087078;28;20516;-71
2022/03/16 05:15:20;;;;;;;37.38;20.73;;;;;;;3.30;100.00;102132.19;5087226;28;20051;-71
2022/03/16 05:17:47;;;;;;;33.63;19.85;;;;;;;3.28;100.00;102129.00;5087834;28;20044;-70
2022/03/16 05:20:15;;;;;;;36.65;20.25;;;;;;;3.29;100.00;102127.84;5087517;28;20052;-71
2022/03/16 05:22:53;;;;;;;39.80;21.27;;;;;;;3.28;100.00;102125.44;5086455;28;20055;-69
2022/03/16 05:25:25;;;;;;;39.00;20.98;;;;;;;3.25;100.00;102135.09;5073421;28;20058;-70
2022/03/16 05:27:52;;;;;;;39.90;20.60;;;;;;;3.20;100.00;102139.88;5087103;28;20048;-69
2022/03/16 05:30:22;;;;;;;36.60;20.48;;;;;;;3.14;100.00;102138.41;5086793;28;20051;-70
2022/03/16 05:32:54;;;;;;;36.90;21.83;;;;;;;3.16;100.00;102142.44;5084920;28;20063;-72
2022/03/16 05:35:21;;;;;;;35.72;21.10;;;;;;;3.15;100.00;102140.81;5088451;28;20069;-70
2022/03/16 05:37:47;;;;;;;37.42;21.92;;;;;;;3.14;100.00;102146.59;5091455;28;20143;-71
2022/03/16 05:40:14;;;;;;;40.38;22.55;;;;;;;3.18;100.00;102151.13;5092046;28;20048;-70
2022/03/16 05:42:40;;;;;;;36.90;21.77;;;;;;;3.21;100.00;102142.31;5090898;28;20092;-71
2022/03/16 05:45:08;;;;;;;36.63;21.33;;;;;;;3.21;100.00;102141.50;5091687;28;20088;-73
2022/03/16 05:47:34;;;;;;;39.33;21.33;;;;;;;3.20;100.00;102148.09;5091843;28;20083;-72
2022/03/16 05:50:02;;;;;;;40.38;22.10;;;;;;;3.22;100.00;102151.31;5090830;28;20501;-71
2022/03/16 05:52:34;;;;;;;37.80;22.00;;;;;;;3.26;100.00;102141.34;5088877;28;20406;-73
2022/03/16 05:55:07;;;;;;;39.22;21.90;;;;;;;3.26;100.00;102144.06;5091468;28;20558;-71
2022/03/16 05:57:36;;;;;;;37.97;20.50;;;;;;;3.25;100.00;102146.03;5096644;28;20048;-73
2022/03/16 06:00:03;;;;;;;36.25;20.65;;;;;;;3.24;100.00;102147.13;5090799;28;20834;-71
2022/03/16 06:02:29;;;;;;;37.80;19.50;;;;;;;3.22;100.00;102140.34;5090613;28;20074;-71
2022/03/16 06:04:56;;;;;;;34.83;19.48;;;;;;;3.17;100.00;102138.56;5077766;28;20056;-73
2022/03/16 06:07:22;;;;;;;35.00;18.85;;;;;;;3.17;100.00;102144.03;5094027;28;20040;-72
2022/03/16 06:09:49;;;;;;;38.70;20.02;;;;;;;3.18;100.00;102139.38;5091311;27;20047;-71
2022/03/16 06:12:15;;;;;;;36.92;20.67;;;;;;;3.17;100.00;102141.28;5090227;28;20204;-70
2022/03/16 06:14:42;;;;;;;32.72;19.55;;;;;;;3.19;100.00;102140.97;5090032;28;20048;-70
2022/03/16 06:17:08;;;;;;;33.90;19.75;;;;;;;3.20;100.00;102146.16;5091043;28;20055;-73
2022/03/16 06:19:35;;;;;;;33.20;17.70;;;;;;;3.24;100.00;102140.88;5089849;28;20059;-70
2022/03/16 06:22:02;;;;;;;33.13;17.90;;;;;;;3.26;100.00;102142.16;5090923;28;20075;-71
2022/03/16 06:24:29;;;;;;;33.22;18.55;;;;;;;3.21;100.00;102142.31;5089477;28;20048;-72
2022/03/16 06:26:56;;;;;;;36.47;18.90;;;;;;;3.22;100.00;102143.09;5091228;28;20051;-70
2022/03/16 06:29:22;;;;;;;44.22;22.05;;;;;;;3.26;100.00;102147.63;5089128;28;20131;-72
2022/03/16 06:31:49;;;;;;;33.65;19.13;;;;;;;3.30;100.00;102143.13;5089531;28;20135;-73
2022/03/16 06:34:16;;;;;;;33.63;19.27;;;;;;;3.37;100.00;102159.91;5090023;28;20051;-73
2022/03/16 06:36:42;;;;;;;36.20;19.60;;;;;;;3.37;100.00;102154.44;5091456;28;20044;-73
2022/03/16 06:39:09;;;;;;;36.65;20.10;;;;;;;3.44;100.00;102157.53;5088205;28;20048;-75
2022/03/16 06:41:35;;;;;;;32.03;18.40;;;;;;;3.54;100.00;102151.78;5090567;28;20133;-74
2022/03/16 06:44:02;;;;;;;34.78;19.25;;;;;;;3.59;100.00;102148.94;5090914;28;20054;-73
2022/03/16 06:46:29;;;;;;;37.20;18.35;;;;;;;3.66;100.00;102152.00;5092286;28;20131;-73
2022/03/16 06:48:55;;;;;;;32.42;17.58;;;;;;;3.74;100.00;102153.19;5090149;28;20520;-72
2022/03/16 06:51:22;;;;;;;39.53;19.27;;;;;;;3.80;100.00;102160.09;5088070;28;20054;-74
2022/03/16 06:53:52;;;;;;;35.47;19.13;;;;;;;3.85;100.00;102158.00;5089250;28;20040;-73
2022/03/16 06:56:18;;;;;;;35.70;18.55;;;;;;;3.94;100.00;102153.38;5095740;28;20468;-75
2022/03/16 06:58:45;;;;;;;34.45;18.52;;;;;;;3.99;100.00;102155.16;5093904;28;20047;-73
2022/03/16 07:01:11;;;;;;;37.33;19.73;;;;;;;4.07;100.00;102155.19;5088215;28;20116;-73
2022/03/16 07:03:38;;;;;;;33.70;18.90;;;;;;;4.14;100.00;102158.25;5088896;28;20557;-75
2022/03/16 07:06:05;;;;;;;32.38;18.27;;;;;;;4.23;100.00;102161.84;5090138;28;20052;-75
2022/03/16 07:08:31;;;;;;;34.78;18.23;;;;;;;4.28;100.00;102169.88;5097076;28;20186;-72
2022/03/16 07:10:58;;;;;;;38.92;19.63;;;;;;;4.37;100.00;102162.50;5091291;28;20048;-73
2022/03/16 07:13:24;;;;;;;37.08;20.05;;;;;;;4.41;100.00;102157.16;5100492;28;20077;-72
2022/03/16 07:15:51;;;;;;;34.25;18.02;;;;;;;4.48;100.00;102158.31;5091020;28;20126;-74
2022/03/16 07:18:19;;;;;;;35.05;17.92;;;;;;;4.58;100.00;102162.66;5093087;28;20118;-74
2022/03/16 07:20:47;;;;;;;38.03;19.35;;;;;;;4.65;100.00;102158.31;5088594;28;20413;-72
2022/03/16 07:23:16;;;;;;;37.55;18.67;;;;;;;4.74;100.00;102153.66;5089481;28;20131;-72
2022/03/16 07:25:48;;;;;;;33.78;19.30;;;;;;;4.83;100.00;102151.69;5088858;28;20054;-73
2022/03/16 07:28:17;;;;;;;40.47;21.38;;;;;;;4.96;100.00;102160.84;5089188;28;20129;-72
2022/03/16 07:30:44;;;;;;;38.13;19.10;;;;;;;5.09;100.00;102157.94;5089403;28;20101;-72
2022/03/16 07:33:11;;;;;;;39.13;18.60;;;;;;;5.21;100.00;102160.84;5089341;28;20075;-71
2022/03/16 07:35:39;;;;;;;35.75;17.38;;;;;;;5.35;100.00;102166.94;5087942;28;20500;-74
2022/03/16 07:38:08;;;;;;;35.53;16.67;;;;;;;5.50;100.00;102178.50;5089529;28;20124;-72
2022/03/16 07:40:36;;;;;;;36.13;18.83;;;;;;;5.60;100.00;102173.44;5094711;28;20086;-73
2022/03/16 07:43:05;;;;;;;37.58;15.95;;;;;;;5.74;100.00;102179.53;5089599;28;20685;-75
2022/03/16 07:45:32;;;;;;;33.15;16.13;;;;;;;5.90;100.00;102171.59;5089542;28;20097;-71
2022/03/16 07:47:59;;;;;;;37.58;18.48;;;;;;;6.02;100.00;102178.00;5089471;28;20052;-71
2022/03/16 07:50:26;;;;;;;30.63;14.90;;;;;;;6.15;100.00;102178.88;5088094;28;20595;-72
2022/03/16 07:52:55;;;;;;;31.10;15.02;;;;;;;6.27;100.00;102176.22;5088422;28;20090;-72
2022/03/16 07:55:22;;;;;;;31.40;14.60;;;;;;;6.36;100.00;102169.53;5087129;28;20080;-72
2022/03/16 07:57:49;;;;;;;32.88;13.73;;;;;;;6.49;100.00;102171.22;5095354;28;20075;-73
2022/03/16 08:00:16;;;;;;;31.63;14.63;;;;;;;6.61;100.00;102176.78;5089035;28;20097;-74
2022/03/16 08:02:44;;;;;;;23.17;11.40;;;;;;;6.71;100.00;102175.56;5084496;28;20048;-73
2022/03/16 08:05:12;;;;;;;28.48;12.30;;;;;;;6.84;100.00;102169.81;5087339;28;20067;-74
2022/03/16 08:07:39;;;;;;;38.60;13.70;;;;;;;6.95;100.00;102164.69;5090089;28;20098;-74
2022/03/16 08:10:06;;;;;;;31.20;13.55;;;;;;;7.04;100.00;102165.41;5089468;28;20151;-72
2022/03/16 08:12:32;;;;;;;30.13;12.45;;;;;;;7.18;100.00;102160.41;5088185;28;20087;-72
2022/03/16 08:15:00;;;;;;;28.85;13.35;;;;;;;7.27;100.00;102163.88;5088256;28;20044;-73
2022/03/16 08:17:26;;;;;;;30.02;12.90;;;;;;;7.38;100.00;102145.78;5089414;28;20052;-72
2022/03/16 08:19:53;;;;;;;26.55;13.20;;;;;;;7.47;100.00;102140.97;5082458;28;20146;-75
2022/03/16 08:22:36;;;;;;;30.27;12.63;;;;;;;7.62;100.00;102146.63;5086016;28;20074;-73
2022/03/16 08:25:06;;;;;;;27.25;12.20;;;;;;;7.74;100.00;102148.56;5087871;28;20050;-71
2022/03/16 08:27:33;;;;;;;28.95;13.30;;;;;;;7.80;100.00;102136.19;5088091;28;20139;-72
2022/03/16 08:30:01;;;;;;;29.75;13.35;;;;;;;7.91;100.00;102140.09;5088254;28;20087;-72
2022/03/16 08:32:27;;;;;;;27.90;13.30;;;;;;;8.02;100.00;102133.75;5087797;28;20528;-72
2022/03/16 08:34:54;;;;;;;29.80;13.35;;;;;;;8.11;100.00;102122.63;5087610;28;20531;-75
2022/03/16 08:37:24;;;;;;;27.90;14.05;;;;;;;8.22;100.00;102121.00;5088209;28;20135;-72
2022/03/16 08:39:51;;;;;;;24.48;11.65;;;;;;;8.38;100.00;102112.81;5087409;28;20465;-73
2022/03/16 08:42:18;;;;;;;28.13;13.18;;;;;;;8.45;100.00;102115.78;5087942;28;20415;-72
2022/03/16 08:44:45;;;;;;;26.45;14.02;;;;;;;8.59;100.00;102113.44;5088146;28;20048;-75
2022/03/16 08:47:16;;;;;;;28.48;12.90;;;;;;;8.71;100.00;102111.44;5087237;28;20051;-73
2022/03/16 08:49:45;;;;;;;26.30;12.15;;;;;;;8.87;100.00;102115.03;5085821;28;20585;-73
2022/03/16 08:52:12;;;;;;;29.50;12.95;;;;;;;9.02;100.00;102106.00;5085761;28;20047;-74
2022/03/16 08:54:40;;;;;;;27.42;11.80;;;;;;;9.17;100.00;102108.00;5085967;28;20657;-74
2022/03/16 08:57:09;;;;;;;27.08;12.98;;;;;;;9.28;100.00;102103.53;5091054;28;20058;-73
2022/03/16 08:59:36;;;;;;;26.02;12.30;;;;;;;9.47;100.00;102108.38;5087761;28;20054;-74
2022/03/16 09:02:03;;;;;;;26.73;12.63;;;;;;;9.55;100.00;102101.88;5087826;28;20226;-72
2022/03/16 09:04:30;;;;;;;28.30;12.60;;;;;;;9.72;100.00;102109.78;5078057;28;20052;-73
2022/03/16 09:07:02;;;;;;;31.02;14.13;;;;;;;9.91;100.00;102116.19;5081867;28;20470;-72
2022/03/16 09:09:29;;;;;;;27.23;11.95;;;;;;;10.01;100.00;102104.56;5086969;28;20051;-72
2022/03/16 09:11:56;;;;;;;25.02;12.27;;;;;;;10.22;100.00;102118.91;5090175;28;20150;-73
2022/03/16 09:14:23;;;;;;;27.13;13.20;;;;;;;10.38;100.00;102110.56;5087727;28;20062;-73
2022/03/16 09:16:49;;;;;;;26.02;13.88;;;;;;;10.50;100.00;102111.22;5090810;28;20134;-74
2022/03/16 09:19:20;;;;;;;27.58;12.60;;;;;;;10.63;99.58;102111.09;5085818;28;20067;-73
2022/03/16 09:21:47;;;;;;;30.60;12.95;;;;;;;10.83;99.41;102112.69;5087916;28;20082;-72
2022/03/16 09:24:15;;;;;;;26.10;11.80;;;;;;;10.92;95.74;102100.22;5088470;28;20508;-73
2022/03/16 09:26:42;;;;;;;27.88;13.23;;;;;;;10.99;94.12;102105.88;5083726;28;20109;-74
2022/03/16 09:29:10;;;;;;;64.80;29.90;;;;;;;11.10;92.92;102106.09;5086903;28;20059;-72
2022/03/16 09:31:37;;;;;;;26.65;13.73;;;;;;;11.25;92.20;102105.19;5085219;28;20484;-72
2022/03/16 09:34:07;;;;;;;26.25;12.05;;;;;;;11.35;91.08;102101.81;5085973;28;20047;-72
2022/03/16 09:36:37;;;;;;;28.20;11.88;;;;;;;11.50;91.89;102100.88;5087720;28;20497;-72
2022/03/16 09:39:05;;;;;;;26.35;13.07;;;;;;;11.58;89.42;102089.53;5087778;28;20052;-73
2022/03/16 09:41:32;;;;;;;23.80;11.68;;;;;;;11.66;87.49;102093.25;5087451;28;20131;-72
2022/03/16 09:44:04;;;;;;;24.88;11.38;;;;;;;11.72;86.67;102097.31;5086783;28;20059;-75
2022/03/16 09:46:35;;;;;;;24.75;11.00;;;;;;;11.76;87.17;102096.22;5082128;28;20100;-75
2022/03/16 09:49:04;;;;;;;24.65;11.32;;;;;;;11.82;85.98;102091.94;5086002;28;20047;-73
2022/03/16 09:51:35;;;;;;;25.83;12.43;;;;;;;11.88;85.13;102084.88;5075374;28;20511;-73
2022/03/16 09:54:03;;;;;;;24.02;12.18;;;;;;;11.98;86.35;102086.25;5085968;28;20120;-73
2022/03/16 09:56:30;;;;;;;24.20;12.30;;;;;;;12.08;86.52;102097.47;5092341;28;20174;-72
2022/03/16 09:58:57;;;;;;;24.58;10.13;;;;;;;12.15;84.21;102097.59;5082571;28;20075;-72
2022/03/16 10:01:24;;;;;;;24.15;12.18;;;;;;;12.22;84.11;102100.44;5092768;28;20063;-72
2022/03/16 10:03:52;;;;;;;26.55;13.55;;;;;;;12.37;84.51;102095.91;5083807;28;20056;-73
2022/03/16 10:06:22;;;;;;;24.58;11.77;;;;;;;12.52;82.93;102092.94;5087072;28;20083;-73
2022/03/16 10:14:20;;;;;;;25.02;11.93;;;;;;;13.00;80.83;102091.94;5084995;28;20054;-72
2022/03/16 10:19:50;;;;;;;24.88;12.52;;;;;;;13.30;78.28;102100.22;5083490;28;20052;-72
2022/03/16 10:22:30;;;;;;;23.23;11.80;;;;;;;13.51;75.60;102100.41;5087373;28;20147;-72
2022/03/16 10:25:00;;;;;;;18.58;9.25;;;;;;;13.71;74.96;102096.19;5098410;28;20454;-74
2022/03/16 10:27:27;;;;;;;24.38;10.88;;;;;;;13.88;72.77;102087.19;5090981;28;20105;-74
2022/03/16 10:29:54;;;;;;;23.08;10.38;;;;;;;14.12;72.49;102085.75;5088417;28;20491;-74
2022/03/16 10:32:22;;;;;;;22.00;10.05;;;;;;;14.25;67.31;102081.47;5086166;28;20127;-73
2022/03/16 10:34:53;;;;;;;22.75;11.25;;;;;;;14.46;70.59;102087.16;5080113;28;20050;-74
2022/03/16 10:37:22;;;;;;;20.42;10.10;;;;;;;14.61;67.45;102075.69;5082677;28;20049;-74
2022/03/16 10:39:50;;;;;;;20.45;8.35;;;;;;;14.71;61.49;102076.91;5083152;28;20084;-77
2022/03/16 10:48:15;;;;;;;23.50;9.93;;;;;;;15.34;61.56;102083.44;5085000;28;20500;-75
2022/03/16 10:50:44;;;;;;;13.13;4.97;;;;;;;15.35;56.43;102079.44;5087436;28;21312;-73
2022/03/16 10:53:14;;;;;;;21.25;9.18;;;;;;;15.50;58.04;102077.50;5083495;28;20047;-74
2022/03/16 10:55:41;;;;;;;17.42;8.68;;;;;;;15.73;55.78;102077.09;5085844;28;20127;-73
2022/03/16 10:58:08;;;;;;;21.48;8.15;;;;;;;15.74;55.95;102078.69;5087014;28;20144;-72
2022/03/16 11:00:37;;;;;;;18.80;9.18;;;;;;;15.88;55.51;102070.28;5086668;28;20559;-75
2022/03/16 11:03:17;;;;;;;19.38;9.15;;;;;;;15.94;54.20;102074.28;5087563;28;20048;-72
2022/03/16 11:05:44;;;;;;;14.23;6.80;;;;;;;15.68;51.65;102086.66;5086398;28;20047;-73
2022/03/16 11:08:11;;;;;;;16.33;6.50;;;;;;;15.67;51.09;102067.53;5089122;28;20056;-75
2022/03/16 11:10:40;;;;;;;15.38;6.57;;;;;;;15.61;51.51;102069.91;5087148;28;20079;-74
2022/03/16 11:15:54;;;;;;;22.15;10.43;;;;;;;16.12;52.76;102063.84;5076070;28;20554;-74
2022/03/16 11:18:24;;;;;;;20.48;8.32;;;;;;;16.38;51.41;102066.97;5084187;28;20136;-73
2022/03/16 11:20:54;;;;;;;22.90;10.52;;;;;;;16.50;51.07;102071.38;5092481;28;20504;-73
2022/03/16 11:26:37;;;;;;;20.00;9.40;;;;;;;16.67;49.95;102059.31;5079450;28;20055;-75
2022/03/16 11:29:38;;;;;;;19.27;8.77;;;;;;;16.96;49.49;102060.72;5080005;28;20432;-72
2022/03/16 11:32:11;;;;;;;19.88;9.60;;;;;;;17.33;49.66;102060.88;5089109;28;20105;-75